createdAt,value
2019-02-16T00:01:15.723Z,1.75
2019-02-16T00:03:45.945Z,1.74
2019-02-16T00:06:16.355Z,1.75
2019-02-16T00:08:46.554Z,1.69
2019-02-16T00:11:16.808Z,1.71
2019-02-16T00:13:47.007Z,1.71
2019-02-16T00:16:17.218Z,1.73
2019-02-16T00:18:47.322Z,1.74
2019-02-16T00:21:17.564Z,1.70
2019-02-16T00:23:47.877Z,1.79
2019-02-16T00:26:17.977Z,1.65
2019-02-16T00:28:48.125Z,1.66
2019-02-16T00:31:18.350Z,1.70
2019-02-16T00:33:48.563Z,1.71
2019-02-16T00:36:18.669Z,1.71
2019-02-16T00:38:48.887Z,1.59
2019-02-16T00:41:18.978Z,1.59
2019-02-16T00:43:49.166Z,1.51
2019-02-16T00:46:19.570Z,1.62
2019-02-16T00:48:50.780Z,1.53
2019-02-16T00:51:21.135Z,1.49
2019-02-16T00:53:51.229Z,1.55
2019-02-16T00:56:21.466Z,1.51
2019-02-16T00:58:51.607Z,1.56
2019-02-16T01:01:21.837Z,1.63
2019-02-16T01:03:52.038Z,1.54
2019-02-16T01:06:22.299Z,1.55
2019-02-16T01:08:52.428Z,1.56
2019-02-16T01:11:22.691Z,1.58
2019-02-16T01:13:52.917Z,1.53
2019-02-16T01:16:23.171Z,1.55
2019-02-16T01:18:53.365Z,1.67
2019-02-16T01:21:23.613Z,1.60
2019-02-16T01:23:53.832Z,1.64
2019-02-16T01:26:24.078Z,1.65
2019-02-16T01:28:54.682Z,1.61
2019-02-16T01:31:24.988Z,1.59
2019-02-16T01:33:55.182Z,1.58
2019-02-16T01:36:25.441Z,1.63
2019-02-16T01:38:55.719Z,1.59
2019-02-16T01:41:25.956Z,1.63
2019-02-16T01:43:56.177Z,1.62
2019-02-16T01:46:26.418Z,1.63
2019-02-16T01:48:56.588Z,1.58
2019-02-16T01:51:31.968Z,1.56
2019-02-16T01:53:58.793Z,1.62
2019-02-16T01:56:29.038Z,1.69
2019-02-16T01:58:59.213Z,1.66
2019-02-16T02:01:29.465Z,1.62
2019-02-16T02:03:59.668Z,1.61
2019-02-16T02:06:29.909Z,1.60
2019-02-16T02:09:00.120Z,1.50
2019-02-16T02:11:30.370Z,1.45
2019-02-16T02:14:00.574Z,1.50
2019-02-16T02:16:30.716Z,1.49
2019-02-16T02:19:00.896Z,1.57
2019-02-16T02:21:31.137Z,1.61
2019-02-16T02:24:01.247Z,1.52
2019-02-16T02:26:31.407Z,1.53
2019-02-16T02:29:01.581Z,1.54
2019-02-16T02:31:31.742Z,1.57
2019-02-16T02:34:01.853Z,1.60
2019-02-16T02:36:32.078Z,1.59
2019-02-16T02:39:02.207Z,1.54
2019-02-16T02:41:32.433Z,1.64
2019-02-16T02:44:02.600Z,1.63
2019-02-16T02:46:32.742Z,1.62
2019-02-16T02:49:03.791Z,1.62
2019-02-16T02:51:34.123Z,1.56
2019-02-16T02:54:04.290Z,1.57
2019-02-16T02:56:34.411Z,1.56
2019-02-16T02:59:04.524Z,1.55
2019-02-16T03:01:34.780Z,1.56
2019-02-16T03:04:04.984Z,1.56
2019-02-16T03:06:35.140Z,1.61
2019-02-16T03:09:05.868Z,1.59
2019-02-16T03:11:36.108Z,1.63
2019-02-16T03:14:06.141Z,1.70
2019-02-16T03:16:36.301Z,1.69
2019-02-16T03:19:06.369Z,1.67
2019-02-16T03:21:36.628Z,1.59
2019-02-16T03:24:06.820Z,1.60
2019-02-16T03:26:43.258Z,1.62
2019-02-16T03:29:22.499Z,1.59
2019-02-16T03:32:10.799Z,1.66
2019-02-16T03:34:56.198Z,1.65
2019-02-16T03:37:49.254Z,1.60
2019-02-16T03:40:19.446Z,1.58
2019-02-16T03:42:49.690Z,1.56
2019-02-16T03:45:19.893Z,1.58
2019-02-16T03:47:50.136Z,1.67
2019-02-16T03:50:21.228Z,1.64
2019-02-16T03:52:51.555Z,1.55
2019-02-16T03:55:21.765Z,1.61
2019-02-16T03:57:51.987Z,1.62
2019-02-16T04:00:22.175Z,1.75
2019-02-16T04:02:52.418Z,1.69
2019-02-16T04:05:22.643Z,1.64
2019-02-16T04:07:52.869Z,1.68
2019-02-16T04:10:22.941Z,1.68
2019-02-16T04:12:53.187Z,1.71
2019-02-16T04:15:23.390Z,1.66
2019-02-16T04:17:53.546Z,1.60
2019-02-16T04:20:23.688Z,1.65
2019-02-16T04:22:53.941Z,1.57
2019-02-16T04:25:24.112Z,1.59
2019-02-16T04:27:54.301Z,1.63
2019-02-16T04:30:24.434Z,1.71
2019-02-16T04:32:54.684Z,1.69
2019-02-16T04:35:24.863Z,1.76
2019-02-16T04:37:55.023Z,1.77
2019-02-16T04:40:25.086Z,1.81
2019-02-16T04:42:55.323Z,1.94
2019-02-16T04:45:25.399Z,1.93
2019-02-16T04:47:55.632Z,2.01
2019-02-16T04:50:26.661Z,2.05
2019-02-16T04:52:56.988Z,2.02
2019-02-16T04:55:27.174Z,1.93
2019-02-16T04:57:57.366Z,1.98
2019-02-16T05:00:27.534Z,2.07
2019-02-16T05:02:57.688Z,2.13
2019-02-16T05:05:27.799Z,2.00
2019-02-16T05:07:58.026Z,1.97
2019-02-16T05:10:28.146Z,2.17
2019-02-16T05:12:58.308Z,2.17
2019-02-16T05:15:28.483Z,2.12
2019-02-16T05:17:58.660Z,2.08
2019-02-16T05:20:28.632Z,2.09
2019-02-16T05:22:58.789Z,2.04
2019-02-16T05:25:29.000Z,2.18
2019-02-16T05:27:59.132Z,2.22
2019-02-16T05:30:29.340Z,2.33
2019-02-16T05:32:59.586Z,2.18
2019-02-16T05:35:29.763Z,2.07
2019-02-16T05:37:59.994Z,2.17
2019-02-16T05:40:30.218Z,2.09
2019-02-16T05:43:00.461Z,2.14
2019-02-16T05:45:30.649Z,2.06
2019-02-16T05:48:00.936Z,1.91
2019-02-16T05:50:32.111Z,1.99
2019-02-16T05:53:02.449Z,1.98
2019-02-16T05:55:32.662Z,2.14
2019-02-16T05:58:02.909Z,2.09
2019-02-16T06:00:33.105Z,2.18
2019-02-16T06:03:03.356Z,2.15
2019-02-16T06:05:33.538Z,2.10
2019-02-16T06:08:03.818Z,2.25
2019-02-16T06:10:33.997Z,2.24
2019-02-16T06:13:04.150Z,2.17
2019-02-16T06:15:34.349Z,2.07
2019-02-16T06:18:04.605Z,2.13
2019-02-16T06:20:34.780Z,2.21
2019-02-16T06:23:05.052Z,2.37
2019-02-16T06:25:35.288Z,2.41
2019-02-16T06:28:05.524Z,2.29
2019-02-16T06:30:35.726Z,2.22
2019-02-16T06:33:05.906Z,2.23
2019-02-16T06:35:37.574Z,2.18
2019-02-16T06:38:07.813Z,2.14
2019-02-16T06:40:37.869Z,2.16
2019-02-16T06:43:08.033Z,2.17
2019-02-16T06:45:38.153Z,2.28
2019-02-16T06:48:08.356Z,2.22
2019-02-16T06:50:39.525Z,2.28
2019-02-16T06:53:13.313Z,2.41
2019-02-16T06:55:45.988Z,2.41
2019-02-16T06:58:16.162Z,2.48
2019-02-16T07:00:46.266Z,2.56
2019-02-16T07:03:16.359Z,2.22
2019-02-16T07:05:46.458Z,2.15
2019-02-16T07:08:16.664Z,2.23
2019-02-16T07:10:46.784Z,2.22
2019-02-16T07:13:16.940Z,2.17
2019-02-16T07:15:48.725Z,2.14
2019-02-16T07:18:20.521Z,2.14
2019-02-16T07:20:50.727Z,2.06
2019-02-16T07:23:22.777Z,2.16
2019-02-16T07:25:52.967Z,2.23
2019-02-16T07:28:23.126Z,2.23
2019-02-16T07:30:53.295Z,2.27
2019-02-16T07:33:23.485Z,2.29
2019-02-16T07:35:53.520Z,2.27
2019-02-16T07:38:23.770Z,2.16
2019-02-16T07:40:53.984Z,2.17
2019-02-16T07:43:42.083Z,2.12
2019-02-16T07:46:16.567Z,2.18
2019-02-16T07:48:48.312Z,2.26
2019-02-16T07:51:37.239Z,2.58
2019-02-16T07:54:12.108Z,2.54
2019-02-16T07:56:46.368Z,2.80
2019-02-16T07:59:18.221Z,2.61
2019-02-16T08:01:49.994Z,2.45
2019-02-16T08:04:21.789Z,2.42
2019-02-16T08:06:56.348Z,2.32
2019-02-16T08:09:37.109Z,2.30
2019-02-16T08:12:11.866Z,2.44
2019-02-16T08:14:58.953Z,2.46
2019-02-16T08:17:30.756Z,2.65
2019-02-16T08:20:02.572Z,2.74
2019-02-16T08:22:34.333Z,2.77
2019-02-16T08:25:24.450Z,2.89
2019-02-16T08:27:56.222Z,2.85
2019-02-16T08:30:40.003Z,2.72
2019-02-16T08:33:28.338Z,2.68
2019-02-16T08:36:02.819Z,2.83
2019-02-16T08:38:37.618Z,2.74
2019-02-16T08:41:25.532Z,2.74
2019-02-16T08:44:00.007Z,2.65
2019-02-16T08:46:31.813Z,2.85
2019-02-16T08:49:03.478Z,2.79
2019-02-16T08:51:36.222Z,2.69
2019-02-16T08:54:13.532Z,2.67
2019-02-16T08:56:57.410Z,2.66
2019-02-16T08:59:29.171Z,2.61
2019-02-16T09:02:04.067Z,2.80
2019-02-16T09:04:42.024Z,3.08
2019-02-16T09:07:23.078Z,3.37
2019-02-16T09:10:03.822Z,3.13
2019-02-16T09:12:44.022Z,3.37
2019-02-16T09:15:21.668Z,3.58
2019-02-16T09:17:56.446Z,3.48
2019-02-16T09:20:44.170Z,3.61
2019-02-16T09:23:24.779Z,3.60
2019-02-16T09:26:14.514Z,3.78
2019-02-16T09:28:46.197Z,3.39
2019-02-16T09:31:20.924Z,3.57
2019-02-16T09:34:08.798Z,3.76
2019-02-16T09:36:43.415Z,3.59
2019-02-16T09:39:31.395Z,3.73
2019-02-16T09:42:03.082Z,3.74
2019-02-16T09:44:51.317Z,3.87
2019-02-16T09:47:23.085Z,3.89
2019-02-16T09:50:03.826Z,3.80
2019-02-16T09:52:39.176Z,3.57
2019-02-16T09:55:10.999Z,3.64
2019-02-16T09:57:42.874Z,3.64
2019-02-16T10:00:17.388Z,3.74
2019-02-16T10:02:55.070Z,3.86
2019-02-16T10:05:26.885Z,3.59
2019-02-16T10:07:58.650Z,3.62
2019-02-16T10:10:30.447Z,3.46
2019-02-16T10:13:02.220Z,3.45
2019-02-16T10:15:45.889Z,3.36
2019-02-16T10:18:20.385Z,3.34
2019-02-16T10:20:54.945Z,3.55
2019-02-16T10:23:43.105Z,3.65
2019-02-16T10:26:14.906Z,3.39
2019-02-16T10:28:55.818Z,3.52
2019-02-16T10:31:30.076Z,3.63
2019-02-16T10:34:01.839Z,3.40
2019-02-16T10:36:33.578Z,3.39
2019-02-16T10:39:08.211Z,3.28
2019-02-16T10:41:42.993Z,3.21
2019-02-16T10:44:17.692Z,3.28
2019-02-16T10:46:51.967Z,3.21
2019-02-16T10:49:29.759Z,3.24
2019-02-16T10:52:10.501Z,3.25
2019-02-16T10:54:51.118Z,2.97
2019-02-16T10:57:38.455Z,3.02
2019-02-16T11:00:19.687Z,3.04
2019-02-16T11:02:51.483Z,2.98
2019-02-16T11:05:35.410Z,2.97
2019-02-16T11:08:16.054Z,2.93
2019-02-16T11:10:59.598Z,3.02
2019-02-16T11:13:34.531Z,2.99
2019-02-16T11:16:08.988Z,3.01
2019-02-16T11:18:58.119Z,3.00
2019-02-16T11:21:29.901Z,2.82
2019-02-16T11:24:10.518Z,2.81
2019-02-16T11:26:57.597Z,2.99
2019-02-16T11:29:38.389Z,2.82
2019-02-16T11:32:26.487Z,2.87
2019-02-16T11:35:04.321Z,3.00
2019-02-16T11:37:38.818Z,2.99
2019-02-16T11:40:13.117Z,2.79
2019-02-16T11:42:53.747Z,2.77
2019-02-16T11:45:40.893Z,2.95
2019-02-16T11:48:15.711Z,2.75
2019-02-16T11:50:47.528Z,2.90
2019-02-16T11:53:22.221Z,3.02
2019-02-16T11:56:00.710Z,2.77
2019-02-16T11:58:35.178Z,2.58
2019-02-16T12:01:07.127Z,2.68
2019-02-16T12:03:38.891Z,2.66
2019-02-16T12:06:10.706Z,2.61
2019-02-16T12:08:45.172Z,2.81
2019-02-16T12:11:23.179Z,2.94
2019-02-16T12:13:54.920Z,2.89
2019-02-16T12:16:26.704Z,2.69
2019-02-16T12:18:58.440Z,2.51
2019-02-16T12:21:39.564Z,2.63
2019-02-16T12:24:29.376Z,2.79
2019-02-16T12:27:09.945Z,2.76
2019-02-16T12:29:50.517Z,2.87
2019-02-16T12:32:22.320Z,2.85
2019-02-16T12:35:03.096Z,2.98
2019-02-16T12:37:34.923Z,2.84
2019-02-16T12:40:20.403Z,2.72
2019-02-16T12:42:55.124Z,2.73
2019-02-16T12:45:26.890Z,2.81
2019-02-16T12:48:04.114Z,2.77
2019-02-16T12:50:35.936Z,2.64
2019-02-16T12:53:19.940Z,2.76
2019-02-16T12:56:00.795Z,2.76
2019-02-16T12:58:33.488Z,2.69
2019-02-16T13:01:05.154Z,2.73
2019-02-16T13:03:46.321Z,2.85
2019-02-16T13:06:24.025Z,2.83
2019-02-16T13:09:11.049Z,2.84
2019-02-16T13:11:45.378Z,2.71
2019-02-16T13:14:19.878Z,2.77
2019-02-16T13:17:10.008Z,2.66
2019-02-16T13:19:44.640Z,2.59
2019-02-16T13:22:16.413Z,2.64
2019-02-16T13:24:50.901Z,2.57
2019-02-16T13:27:37.507Z,2.73
2019-02-16T13:30:10.146Z,2.87
2019-02-16T13:32:47.882Z,2.71
2019-02-16T13:35:19.713Z,2.44
2019-02-16T13:37:54.171Z,2.53
2019-02-16T13:40:38.178Z,2.61
2019-02-16T13:43:28.039Z,2.60
2019-02-16T13:46:08.704Z,2.53
2019-02-16T13:48:43.284Z,2.60
2019-02-16T13:51:24.041Z,2.71
2019-02-16T13:53:55.802Z,2.80
2019-02-16T13:56:45.736Z,2.71
2019-02-16T13:59:18.421Z,2.81
2019-02-16T14:01:56.233Z,2.76
2019-02-16T14:04:43.330Z,2.71
2019-02-16T14:07:15.147Z,2.66
2019-02-16T14:10:03.195Z,2.77
2019-02-16T14:12:35.018Z,2.77
2019-02-16T14:15:26.451Z,2.65
2019-02-16T14:17:56.706Z,2.69
2019-02-16T14:20:26.882Z,2.71
2019-02-16T14:22:57.058Z,2.52
2019-02-16T14:25:28.819Z,2.42
2019-02-16T14:27:59.083Z,2.51
2019-02-16T14:30:29.283Z,2.60
2019-02-16T14:32:59.451Z,2.44
2019-02-16T14:35:29.639Z,2.41
2019-02-16T14:38:19.544Z,2.40
2019-02-16T14:40:49.434Z,2.52
2019-02-16T14:43:19.610Z,2.42
2019-02-16T14:45:49.800Z,2.56
2019-02-16T14:48:20.044Z,2.54
2019-02-16T14:50:50.251Z,2.51
2019-02-16T14:53:20.416Z,2.58
2019-02-16T14:55:54.130Z,2.35
2019-02-16T14:58:22.458Z,2.31
2019-02-16T15:00:53.628Z,2.37
2019-02-16T15:03:23.878Z,2.36
2019-02-16T15:05:54.190Z,2.18
2019-02-16T15:08:24.448Z,2.02
2019-02-16T15:10:54.521Z,2.00
2019-02-16T15:13:24.625Z,1.89
2019-02-16T15:15:54.759Z,1.77
2019-02-16T15:18:25.011Z,1.76
2019-02-16T15:20:55.206Z,1.95
2019-02-16T15:23:25.666Z,2.02
2019-02-16T15:26:01.174Z,2.15
2019-02-16T15:28:27.792Z,2.23
2019-02-16T15:30:58.019Z,2.12
2019-02-16T15:33:28.269Z,2.14
2019-02-16T15:35:58.440Z,2.18
2019-02-16T15:38:28.691Z,2.03
2019-02-16T15:40:58.911Z,1.99
2019-02-16T15:43:29.185Z,2.05
2019-02-16T15:45:59.395Z,2.07
2019-02-16T15:48:29.663Z,2.14
2019-02-16T15:50:59.882Z,2.01
2019-02-16T15:53:30.140Z,1.97
2019-02-16T15:56:00.357Z,2.10
2019-02-16T15:58:33.617Z,1.88
2019-02-16T16:01:10.125Z,1.83
2019-02-16T16:04:02.047Z,1.53
2019-02-16T16:06:40.566Z,1.58
2019-02-16T16:09:25.244Z,1.72
2019-02-16T16:12:03.871Z,1.77
2019-02-16T16:14:45.620Z,1.84
2019-02-16T16:17:42.599Z,1.92
2019-02-16T16:20:35.682Z,1.74
2019-02-16T16:23:32.216Z,1.84
2019-02-16T16:26:24.066Z,1.83
2019-02-16T16:29:22.053Z,1.70
2019-02-16T16:31:53.583Z,1.83
2019-02-16T16:34:35.266Z,1.66
2019-02-16T16:37:12.234Z,1.51
2019-02-16T16:39:47.333Z,1.55
2019-02-16T16:42:26.284Z,1.66
2019-02-16T16:45:02.025Z,1.49
2019-02-16T16:47:44.313Z,1.59
2019-02-16T16:50:38.468Z,1.62
2019-02-16T16:53:11.717Z,1.68
2019-02-16T16:55:47.206Z,1.77
2019-02-16T16:58:37.002Z,1.75
2019-02-16T17:01:33.765Z,1.89
2019-02-16T17:04:45.950Z,1.69
2019-02-16T17:07:31.738Z,1.85
2019-02-16T17:10:11.947Z,1.73
2019-02-16T17:13:04.906Z,1.79
2019-02-16T17:15:42.287Z,1.89
2019-02-16T17:18:41.973Z,1.85
2019-02-16T17:21:49.174Z,1.97
2019-02-16T17:25:12.012Z,1.87
2019-02-16T17:28:02.846Z,1.56
2019-02-16T17:30:35.019Z,1.54
2019-02-16T17:33:21.716Z,1.55
2019-02-16T17:36:02.519Z,1.55
2019-02-16T17:38:48.314Z,1.61
2019-02-16T17:41:41.073Z,1.77
2019-02-16T17:44:32.979Z,1.85
2019-02-16T17:47:16.813Z,1.76
2019-02-16T17:50:26.325Z,1.90
2019-02-16T17:56:46.819Z,1.80
2019-02-16T17:59:23.456Z,1.55
2019-02-16T18:02:11.649Z,1.64
2019-02-16T18:05:04.970Z,1.62
2019-02-16T18:07:44.712Z,1.42
2019-02-16T18:10:44.584Z,1.53
2019-02-16T18:13:26.441Z,1.59
2019-02-16T18:16:22.628Z,1.52
2019-02-16T18:18:46.373Z,1.66
2019-02-16T18:21:29.027Z,1.71
2019-02-16T18:24:14.881Z,1.70
2019-02-16T18:27:06.318Z,1.75
2019-02-16T18:29:55.628Z,1.68
2019-02-16T18:32:48.009Z,1.57
2019-02-16T18:35:51.200Z,1.62
2019-02-16T18:38:31.737Z,1.78
2019-02-16T18:41:12.016Z,1.63
2019-02-16T18:43:56.660Z,1.50
2019-02-16T18:46:57.000Z,1.60
2019-02-16T18:49:41.558Z,1.68
2019-02-16T18:55:20.222Z,1.59
2019-02-16T18:58:11.277Z,1.72
2019-02-16T19:00:59.661Z,1.62
2019-02-16T19:06:59.642Z,1.48
2019-02-16T19:09:50.501Z,1.65
2019-02-16T19:12:37.191Z,1.39
2019-02-16T19:15:37.137Z,1.39
2019-02-16T19:18:13.052Z,1.25
2019-02-16T19:20:48.085Z,1.21
2019-02-16T19:23:19.828Z,1.25
2019-02-16T19:25:57.270Z,1.20
2019-02-16T19:28:31.723Z,1.20
2019-02-16T19:31:05.068Z,1.26
2019-02-16T19:33:45.229Z,1.17
2019-02-16T19:36:19.754Z,1.24
2019-02-16T19:38:54.296Z,1.26
2019-02-16T19:41:31.968Z,1.33
2019-02-16T19:44:03.651Z,1.45
2019-02-16T19:46:38.444Z,1.49
2019-02-16T19:49:21.886Z,1.54
2019-02-16T19:51:59.478Z,1.55
2019-02-16T19:54:31.259Z,1.58
2019-02-16T19:57:26.672Z,1.47
2019-02-16T20:00:10.110Z,1.36
2019-02-16T20:02:44.643Z,1.29
2019-02-16T20:05:16.430Z,1.27
2019-02-16T20:07:51.279Z,1.35
2019-02-16T20:10:29.131Z,1.34
2019-02-16T20:13:00.958Z,1.38
2019-02-16T20:15:49.047Z,1.34
2019-02-16T20:18:20.864Z,1.36
2019-02-16T20:20:52.644Z,1.41
2019-02-16T20:23:24.452Z,1.48
2019-02-16T20:25:59.230Z,1.47
2019-02-16T20:28:31.034Z,1.59
2019-02-16T20:31:02.820Z,1.66
2019-02-16T20:33:40.662Z,1.55
2019-02-16T20:36:24.433Z,1.66
2019-02-16T20:38:59.245Z,1.51
2019-02-16T20:41:30.998Z,1.47
2019-02-16T20:44:11.826Z,1.60
2019-02-16T20:46:49.481Z,1.63
2019-02-16T20:49:30.064Z,1.62
2019-02-16T20:52:01.828Z,1.65
2019-02-16T20:54:36.114Z,1.86
2019-02-16T20:57:13.809Z,1.72
2019-02-16T20:59:48.575Z,1.79
2019-02-16T21:02:23.185Z,1.74
2019-02-16T21:04:57.861Z,1.70
2019-02-16T21:07:29.630Z,1.85
2019-02-16T21:10:08.377Z,1.73
2019-02-16T21:12:40.233Z,1.74
2019-02-16T21:15:11.965Z,1.87
2019-02-16T21:17:49.725Z,1.87
2019-02-16T21:20:21.537Z,1.92
2019-02-16T21:22:59.447Z,1.94
2019-02-16T21:25:34.027Z,1.92
2019-02-16T21:28:08.634Z,1.87
2019-02-16T21:30:40.368Z,1.79
2019-02-16T21:33:14.815Z,1.79
2019-02-16T21:35:55.742Z,1.88
2019-02-16T21:38:43.765Z,1.90
2019-02-16T21:41:21.574Z,1.94
2019-02-16T21:43:53.282Z,1.93
2019-02-16T21:46:27.820Z,1.88
2019-02-16T21:48:59.452Z,1.90
2019-02-16T21:51:49.749Z,1.86
2019-02-16T21:54:36.855Z,1.74
2019-02-16T21:57:08.590Z,1.73
2019-02-16T21:59:55.444Z,1.72
2019-02-16T22:02:27.245Z,1.70
2019-02-16T22:05:08.260Z,1.67
2019-02-16T22:07:45.949Z,1.61
2019-02-16T22:10:20.964Z,1.60
2019-02-16T22:13:09.480Z,1.68
2019-02-16T22:15:39.678Z,1.72
2019-02-16T22:18:09.935Z,1.78
2019-02-16T22:20:40.005Z,1.81
2019-02-16T22:23:10.258Z,1.83
2019-02-16T22:25:40.468Z,1.78
2019-02-16T22:28:18.181Z,1.75
2019-02-16T22:30:42.604Z,1.78
2019-02-16T22:33:12.839Z,1.70
2019-02-16T22:35:43.337Z,1.76
2019-02-16T22:38:13.575Z,1.78
2019-02-16T22:40:43.793Z,1.86
2019-02-16T22:43:14.058Z,1.94
2019-02-16T22:45:44.274Z,1.83
2019-02-16T22:48:14.524Z,1.81
2019-02-16T22:50:44.727Z,1.82
2019-02-16T22:53:14.969Z,1.87
2019-02-16T22:55:45.161Z,1.87
2019-02-16T22:58:15.443Z,1.86
2019-02-16T23:00:47.228Z,1.96
2019-02-16T23:03:17.472Z,2.01
2019-02-16T23:05:47.687Z,2.13
2019-02-16T23:08:17.870Z,2.17
2019-02-16T23:10:49.151Z,2.20
2019-02-16T23:13:19.485Z,2.14
2019-02-16T23:15:49.615Z,2.21
2019-02-16T23:18:19.870Z,2.29
2019-02-16T23:20:50.125Z,2.26
2019-02-16T23:23:20.346Z,2.29
2019-02-16T23:25:50.467Z,2.25
2019-02-16T23:28:20.546Z,2.20
2019-02-16T23:30:50.736Z,2.16
2019-02-16T23:33:20.957Z,2.11
2019-02-16T23:35:51.146Z,2.16
2019-02-16T23:38:21.381Z,2.17
2019-02-16T23:40:51.487Z,2.05
2019-02-16T23:43:21.637Z,1.96
2019-02-16T23:45:51.684Z,1.89
2019-02-16T23:48:21.922Z,1.83
2019-02-16T23:50:52.083Z,1.87
2019-02-16T23:53:22.337Z,1.87
2019-02-16T23:55:52.498Z,1.81
2019-02-16T23:58:22.662Z,1.88
